Statia Express — V7TT3 — position and weather

sailwx.info

Track history (hours):
 
Tides and Currents Weather Stations Pressure Air Temp Water Temp Dewpoint Dewpoint Depression Visibility Wind Speed Wind Dir Waves Ship Positions

Statia Express

Last reported at 2016-Aug-17 17:21 UTC. Time now 2016-Aug-25 23:45 UTC.
Position N 17°44' W 063°04'.
Warning: this ship's position is 8 days out of date.

Length 28 m; draft 4.1 m.

Type: Tug. MMSI: 538003879.

Date/timePositionNaut miles runAvg speedWind from/ knotsBaromVisibWave heightAir tempDewpointWater temp
2016-Aug-17 17:21N 17°44' W 063°04'5 6.4
2016-Aug-17 16:30N 17°50' W 063°04'6 6.1
2016-Aug-17 15:32N 17°55' W 063°05'6 0.8
2016-Aug-17 08:32N 18°01' W 063°03'1 0.5
2016-Aug-17 07:30N 18°00' W 063°03'0 0.0
2016-Aug-17 06:19N 18°00' W 063°03'0 0.0
2016-Aug-17 05:34N 18°00' W 063°03'0 0.0
2016-Aug-17 04:23N 18°00' W 063°03'0 0.0
2016-Aug-17 03:32N 18°00' W 063°03'1 0.0
2016-Aug-16 10:22N 18°01' W 063°03'0 0.0
2016-Aug-16 09:17N 18°01' W 063°03'0 0.0
2016-Aug-16 08:31N 18°01' W 063°03'0 0.0
2016-Aug-16 07:22N 18°01' W 063°03'5 1.8
2016-Aug-16 04:28N 17°56' W 063°05'5 5.2
2016-Aug-16 03:33N 17°51' W 063°04'10 0.2
2016-Aug-14 12:25N 18°01' W 063°03'0 0.0
2016-Aug-14 03:29N 18°01' W 063°03'0 0.0
2016-Aug-14 02:30N 18°01' W 063°03'0 0.0
2016-Aug-14 01:33N 18°01' W 063°03'0 0.0
2016-Aug-13 21:18N 18°01' W 063°03'0 0.0
2016-Aug-13 20:26N 18°01' W 063°03'0 0.0
2016-Aug-13 19:15N 18°01' W 063°03'0 0.0
2016-Aug-13 18:25N 18°01' W 063°03'0 0.2
2016-Aug-13 16:15N 18°00' W 063°03'0 0.0
2016-Aug-13 04:32N 18°01' W 063°03'0 0.0
2016-Aug-13 01:11N 18°01' W 063°03'1 0.4
2016-Aug-12 22:30N 18°01' W 063°04'1 1.2
2016-Aug-12 21:33N 18°01' W 063°05'0 0.0
2016-Aug-12 20:27N 18°01' W 063°05'0 0.0
2016-Aug-12 19:21N 18°01' W 063°05'0 0.0
2016-Aug-12 18:33N 18°01' W 063°05'0 0.0
2016-Aug-12 17:29N 18°01' W 063°05'0 0.0
2016-Aug-12 16:28N 18°01' W 063°05'0 0.0
2016-Aug-12 15:31N 18°01' W 063°05'0 0.0
2016-Aug-12 14:31N 18°01' W 063°05'0 0.0
2016-Aug-12 13:27N 18°01' W 063°05'0 0.0
2016-Aug-12 12:32N 18°01' W 063°05'0 0.0
2016-Aug-12 11:33N 18°01' W 063°05'2 1.6
2016-Aug-12 10:32N 17°60' W 063°05'5 4.8
2016-Aug-12 09:31N 17°55' W 063°05'5 5.5
2016-Aug-12 08:33N 17°50' W 063°04'  
Track history (hours):
 
Tides and Currents Weather Stations Pressure Air Temp Water Temp Dewpoint Dewpoint Depression Visibility Wind Speed Wind Dir Waves Ship Positions

Statia Express

Last reported at 2016-Aug-17 17:21 UTC. Time now 2016-Aug-25 23:45 UTC.
Position N 17°44' W 063°04'.
Warning: this ship's position is 8 days out of date.

Length 28 m; draft 4.1 m.

Type: Tug. MMSI: 538003879.

Date/timePositionNaut miles runAvg speedWind from/ knotsBaromVisibWave heightAir tempDewpointWater temp
2016-Aug-17 17:21N 17°44' W 063°04'5 6.4
2016-Aug-17 16:30N 17°50' W 063°04'6 6.1
2016-Aug-17 15:32N 17°55' W 063°05'6 0.8
2016-Aug-17 08:32N 18°01' W 063°03'1 0.5
2016-Aug-17 07:30N 18°00' W 063°03'0 0.0
2016-Aug-17 06:19N 18°00' W 063°03'0 0.0
2016-Aug-17 05:34N 18°00' W 063°03'0 0.0
2016-Aug-17 04:23N 18°00' W 063°03'0 0.0
2016-Aug-17 03:32N 18°00' W 063°03'1 0.0
2016-Aug-16 10:22N 18°01' W 063°03'0 0.0
2016-Aug-16 09:17N 18°01' W 063°03'0 0.0
2016-Aug-16 08:31N 18°01' W 063°03'0 0.0
2016-Aug-16 07:22N 18°01' W 063°03'5 1.8
2016-Aug-16 04:28N 17°56' W 063°05'5 5.2
2016-Aug-16 03:33N 17°51' W 063°04'10 0.2
2016-Aug-14 12:25N 18°01' W 063°03'0 0.0
2016-Aug-14 03:29N 18°01' W 063°03'0 0.0
2016-Aug-14 02:30N 18°01' W 063°03'0 0.0
2016-Aug-14 01:33N 18°01' W 063°03'0 0.0
2016-Aug-13 21:18N 18°01' W 063°03'0 0.0
2016-Aug-13 20:26N 18°01' W 063°03'0 0.0
2016-Aug-13 19:15N 18°01' W 063°03'0 0.0
2016-Aug-13 18:25N 18°01' W 063°03'0 0.2
2016-Aug-13 16:15N 18°00' W 063°03'0 0.0
2016-Aug-13 04:32N 18°01' W 063°03'0 0.0
2016-Aug-13 01:11N 18°01' W 063°03'1 0.4
2016-Aug-12 22:30N 18°01' W 063°04'1 1.2
2016-Aug-12 21:33N 18°01' W 063°05'0 0.0
2016-Aug-12 20:27N 18°01' W 063°05'0 0.0
2016-Aug-12 19:21N 18°01' W 063°05'0 0.0
2016-Aug-12 18:33N 18°01' W 063°05'0 0.0
2016-Aug-12 17:29N 18°01' W 063°05'0 0.0
2016-Aug-12 16:28N 18°01' W 063°05'0 0.0
2016-Aug-12 15:31N 18°01' W 063°05'0 0.0
2016-Aug-12 14:31N 18°01' W 063°05'0 0.0
2016-Aug-12 13:27N 18°01' W 063°05'0 0.0
2016-Aug-12 12:32N 18°01' W 063°05'0 0.0
2016-Aug-12 11:33N 18°01' W 063°05'2 1.6
2016-Aug-12 10:32N 17°60' W 063°05'5 4.8
2016-Aug-12 09:31N 17°55' W 063°05'5 5.5
2016-Aug-12 08:33N 17°50' W 063°04'  

Dump ship's entire track history